Time;durP1;ratioP1;P1;durP2;ratioP2;P2;SDS_P1;SDS_P2;PMS_P1;PMS_P2;Temp;Humidity;BMP_temperature;BMP_pressure;BME280_temperature;BME280_humidity;BME280_pressure;Samples;Min_cycle;Max_cycle;Signal;HPM_P1;HPM_P2
2023/07/04 00:01:46;;;;;;;7.25;2.25;;;;;;;;;;4995064;28;20415;-69
2023/07/04 00:04:12;;;;;;;8.30;2.33;;;;;;;;;;4996910;28;20368;-69
2023/07/04 00:06:39;;;;;;;8.98;2.35;;;;;;;;;;4994201;28;20060;-67
2023/07/04 00:09:07;;;;;;;7.65;2.67;;;;;;;;;;5000406;28;20476;-67
2023/07/04 00:11:33;;;;;;;10.60;2.45;;;;;;;;;;5003337;28;20441;-68
2023/07/04 00:13:59;;;;;;;7.35;2.47;;;;;;;;;;4999507;28;20030;-68
2023/07/04 00:16:25;;;;;;;9.23;2.85;;;;;;;;;;5001738;28;20108;-68
2023/07/04 00:18:52;;;;;;;7.43;2.83;;;;;;;;;;4994692;28;20084;-67
2023/07/04 00:21:18;;;;;;;7.47;2.38;;;;;;;;;;5003146;28;20108;-69
2023/07/04 00:23:46;;;;;;;6.00;2.35;;;;;;;;;;5000241;28;20549;-68
2023/07/04 00:26:15;;;;;;;7.57;2.65;;;;;;;;;;4997059;28;20813;-68
2023/07/04 00:28:42;;;;;;;7.10;2.13;;;;;;;;;;4998806;28;20614;-68
2023/07/04 00:31:09;;;;;;;6.85;2.17;;;;;;;;;;4996283;28;20069;-68
2023/07/04 00:33:36;;;;;;;7.90;2.60;;;;;;;;;;4999724;28;20067;-68
2023/07/04 00:36:07;;;;;;;6.68;2.50;;;;;;;;;;4996478;28;20037;-68
2023/07/04 00:38:34;;;;;;;8.85;2.72;;;;;;;;;;4996856;28;20034;-68
2023/07/04 00:41:09;;;;;;;6.45;2.30;;;;;;;;;;4999465;28;20713;-68
2023/07/04 00:43:57;;;;;;;5.27;2.10;;;;;;;;;;5005672;28;20021;-68
2023/07/04 00:46:36;;;;;;;6.15;2.20;;;;;;;;;;5002667;28;20898;-68
2023/07/04 00:49:02;;;;;;;6.50;2.30;;;;;;;;;;5002688;28;20701;-68
2023/07/04 00:51:31;;;;;;;8.52;2.45;;;;;;;;;;4993824;28;20048;-68
2023/07/04 00:53:58;;;;;;;6.75;2.40;;;;;;;;;;4996384;28;20515;-68
2023/07/04 00:56:26;;;;;;;6.82;2.83;;;;;;;;;;5001277;28;20089;-67
2023/07/04 00:58:54;;;;;;;7.82;2.50;;;;;;;;;;4995709;28;20496;-68
2023/07/04 01:01:20;;;;;;;7.40;2.30;;;;;;;;;;4999586;28;20068;-68
2023/07/04 01:03:48;;;;;;;8.10;2.20;;;;;;;;;;4997718;28;20041;-68
2023/07/04 01:06:24;;;;;;;6.20;2.20;;;;;;;;;;4992863;28;20460;-68
2023/07/04 01:08:56;;;;;;;8.57;2.40;;;;;;;;;;4995810;28;20029;-68
2023/07/04 01:11:29;;;;;;;7.05;2.40;;;;;;;;;;4995280;28;20176;-68
2023/07/04 01:13:55;;;;;;;7.50;2.60;;;;;;;;;;4994311;28;20032;-68
2023/07/04 01:16:23;;;;;;;7.65;2.55;;;;;;;;;;4997659;28;20571;-68
2023/07/04 01:18:51;;;;;;;8.13;2.33;;;;;;;;;;4999603;28;20073;-68
2023/07/04 01:21:18;;;;;;;5.50;1.88;;;;;;;;;;4999958;28;20037;-68
2023/07/04 01:23:54;;;;;;;6.43;2.38;;;;;;;;;;5001429;28;20029;-68
2023/07/04 01:26:26;;;;;;;6.90;2.45;;;;;;;;;;5000235;28;20029;-68
2023/07/04 01:28:54;;;;;;;6.68;2.13;;;;;;;;;;5008327;28;20038;-68
2023/07/04 01:31:29;;;;;;;6.35;2.40;;;;;;;;;;4999940;28;20574;-68
2023/07/04 01:33:56;;;;;;;6.38;2.40;;;;;;;;;;4994235;28;20030;-68
2023/07/04 01:36:24;;;;;;;11.57;8.43;;;;;;;;;;5001354;28;20029;-68
2023/07/04 01:38:51;;;;;;;12.82;9.88;;;;;;;;;;4992972;28;20061;-68
2023/07/04 01:41:17;;;;;;;10.90;6.70;;;;;;;;;;4994125;28;20042;-68
2023/07/04 01:43:48;;;;;;;10.23;4.82;;;;;;;;;;5002709;28;20083;-68
2023/07/04 01:46:14;;;;;;;9.15;3.80;;;;;;;;;;4997872;28;20686;-68
2023/07/04 01:48:41;;;;;;;8.52;2.90;;;;;;;;;;5001120;28;20029;-67
2023/07/04 01:51:07;;;;;;;9.27;3.00;;;;;;;;;;4998085;28;20464;-68
2023/07/04 01:53:33;;;;;;;8.50;3.13;;;;;;;;;;4994340;28;20033;-68
2023/07/04 01:55:59;;;;;;;7.72;2.78;;;;;;;;;;4993808;28;20038;-68
2023/07/04 01:58:25;;;;;;;6.60;2.67;;;;;;;;;;5005275;28;20025;-69
2023/07/04 02:00:52;;;;;;;7.65;2.95;;;;;;;;;;4999885;28;20029;-68
2023/07/04 02:03:18;;;;;;;6.72;2.28;;;;;;;;;;5002067;28;20101;-68
2023/07/04 02:05:44;;;;;;;7.10;2.50;;;;;;;;;;5001346;28;20043;-68
2023/07/04 02:08:11;;;;;;;7.63;2.35;;;;;;;;;;5002871;28;20421;-68
2023/07/04 02:10:37;;;;;;;6.88;2.35;;;;;;;;;;4992609;28;20072;-68
2023/07/04 02:13:03;;;;;;;6.90;2.45;;;;;;;;;;4992653;28;20061;-68
2023/07/04 02:15:29;;;;;;;7.30;2.47;;;;;;;;;;5001514;28;20434;-69
2023/07/04 02:17:57;;;;;;;7.65;2.30;;;;;;;;;;4999531;28;20025;-69
2023/07/04 02:20:23;;;;;;;7.45;2.40;;;;;;;;;;4997527;28;20038;-67
2023/07/04 02:22:50;;;;;;;9.85;2.67;;;;;;;;;;5001160;28;20379;-67
2023/07/04 02:25:16;;;;;;;6.53;2.63;;;;;;;;;;5003638;28;20424;-67
2023/07/04 02:27:43;;;;;;;7.90;2.72;;;;;;;;;;5004325;28;20079;-67
2023/07/04 02:30:09;;;;;;;8.40;2.72;;;;;;;;;;5000711;28;20506;-67
2023/07/04 02:32:35;;;;;;;7.53;2.70;;;;;;;;;;5002773;28;20618;-67
2023/07/04 02:35:01;;;;;;;9.07;2.88;;;;;;;;;;5003909;28;20124;-66
2023/07/04 02:37:27;;;;;;;7.40;2.60;;;;;;;;;;5003207;28;20026;-67
2023/07/04 02:39:54;;;;;;;7.70;2.70;;;;;;;;;;5005603;28;20167;-70
2023/07/04 02:42:20;;;;;;;6.25;2.40;;;;;;;;;;5003468;28;20615;-68
2023/07/04 02:44:46;;;;;;;6.75;2.20;;;;;;;;;;5000590;28;20316;-69
2023/07/04 02:47:12;;;;;;;7.50;2.53;;;;;;;;;;5003914;28;20268;-67
2023/07/04 02:49:39;;;;;;;7.13;2.38;;;;;;;;;;5003965;28;20119;-69
2023/07/04 02:52:05;;;;;;;7.82;2.35;;;;;;;;;;4998648;28;20484;-66
2023/07/04 02:54:32;;;;;;;6.50;2.50;;;;;;;;;;5004602;28;20103;-68
2023/07/04 02:56:58;;;;;;;6.85;2.60;;;;;;;;;;4997607;28;20366;-65
2023/07/04 02:59:24;;;;;;;8.18;2.50;;;;;;;;;;5010760;28;20037;-67
2023/07/04 03:01:52;;;;;;;7.15;2.30;;;;;;;;;;5000676;28;20053;-70
2023/07/04 03:04:19;;;;;;;7.32;2.63;;;;;;;;;;4999328;28;20021;-66
2023/07/04 03:06:46;;;;;;;7.15;2.30;;;;;;;;;;5001241;28;20030;-67
2023/07/04 03:09:12;;;;;;;7.00;2.55;;;;;;;;;;5001180;28;20172;-69
2023/07/04 03:11:38;;;;;;;7.30;2.20;;;;;;;;;;5001990;28;20037;-68
2023/07/04 03:14:04;;;;;;;7.25;2.60;;;;;;;;;;5004252;28;21869;-68
2023/07/04 03:16:30;;;;;;;7.95;2.60;;;;;;;;;;5003709;28;20021;-68
2023/07/04 03:18:56;;;;;;;7.57;2.60;;;;;;;;;;4999925;28;20029;-67
2023/07/04 03:21:22;;;;;;;8.65;2.50;;;;;;;;;;5004712;28;20543;-68
2023/07/04 03:23:49;;;;;;;8.07;2.30;;;;;;;;;;5002574;28;20347;-68
2023/07/04 03:26:16;;;;;;;6.57;2.50;;;;;;;;;;5002187;28;20688;-68
2023/07/04 03:28:43;;;;;;;6.15;2.33;;;;;;;;;;5005032;28;20029;-68
2023/07/04 03:31:09;;;;;;;9.55;2.47;;;;;;;;;;4999250;28;20030;-68
2023/07/04 03:33:35;;;;;;;6.68;2.15;;;;;;;;;;5001588;28;20135;-68
2023/07/04 03:36:02;;;;;;;7.45;2.63;;;;;;;;;;4994266;28;20121;-68
2023/07/04 03:38:28;;;;;;;7.43;2.78;;;;;;;;;;5007717;28;20497;-68
2023/07/04 03:40:54;;;;;;;7.43;2.50;;;;;;;;;;5000682;28;20738;-67
2023/07/04 03:43:20;;;;;;;7.13;2.70;;;;;;;;;;5005884;28;20044;-68
2023/07/04 03:45:47;;;;;;;6.47;2.28;;;;;;;;;;5007610;28;20040;-67
2023/07/04 03:48:13;;;;;;;6.90;2.33;;;;;;;;;;4997442;28;20026;-67
2023/07/04 03:50:39;;;;;;;6.30;2.25;;;;;;;;;;5000453;28;20059;-67
2023/07/04 03:53:05;;;;;;;6.75;2.45;;;;;;;;;;5003312;28;20039;-67
2023/07/04 03:55:31;;;;;;;6.93;2.33;;;;;;;;;;5009061;28;20029;-67
2023/07/04 03:57:58;;;;;;;7.25;2.38;;;;;;;;;;5004837;28;20042;-67
2023/07/04 04:00:24;;;;;;;8.05;2.20;;;;;;;;;;5000115;28;21472;-69
2023/07/04 04:02:50;;;;;;;7.18;2.60;;;;;;;;;;5001313;28;20048;-67
2023/07/04 04:05:17;;;;;;;6.88;2.25;;;;;;;;;;5003398;28;20063;-66
2023/07/04 04:07:43;;;;;;;7.15;2.38;;;;;;;;;;5003380;28;20022;-69
2023/07/04 04:10:09;;;;;;;6.93;2.40;;;;;;;;;;4997389;28;20046;-67
2023/07/04 04:12:35;;;;;;;6.78;2.47;;;;;;;;;;5005434;28;20108;-67
2023/07/04 04:15:02;;;;;;;7.20;2.67;;;;;;;;;;4999190;28;20041;-67
2023/07/04 04:17:29;;;;;;;8.15;2.70;;;;;;;;;;5006702;28;20037;-66
2023/07/04 04:19:55;;;;;;;7.20;2.47;;;;;;;;;;4997477;28;20316;-66
2023/07/04 04:22:21;;;;;;;7.68;2.40;;;;;;;;;;4999785;28;20025;-69
2023/07/04 04:24:47;;;;;;;7.57;2.50;;;;;;;;;;5002027;28;20521;-67
2023/07/04 04:27:15;;;;;;;7.43;2.35;;;;;;;;;;4997750;28;20034;-67
2023/07/04 04:29:42;;;;;;;9.52;2.83;;;;;;;;;;4998999;28;20025;-67
2023/07/04 04:32:08;;;;;;;7.47;2.55;;;;;;;;;;4999983;28;20045;-67
2023/07/04 04:34:34;;;;;;;8.15;2.20;;;;;;;;;;4999699;28;20547;-67
2023/07/04 04:37:00;;;;;;;7.07;2.28;;;;;;;;;;4998013;28;20087;-67
2023/07/04 04:39:28;;;;;;;7.93;2.72;;;;;;;;;;5004094;28;20614;-68
2023/07/04 04:41:54;;;;;;;7.82;2.83;;;;;;;;;;4999258;28;20159;-67
2023/07/04 04:44:20;;;;;;;8.07;2.58;;;;;;;;;;5002153;28;20068;-67
2023/07/04 04:46:48;;;;;;;7.32;2.70;;;;;;;;;;5002528;28;20037;-67
2023/07/04 04:49:17;;;;;;;8.35;2.80;;;;;;;;;;4997282;28;20120;-68
2023/07/04 04:51:44;;;;;;;8.70;2.72;;;;;;;;;;5002823;28;20066;-68
2023/07/04 04:54:11;;;;;;;7.55;2.92;;;;;;;;;;4998298;28;21778;-68
2023/07/04 04:56:40;;;;;;;9.10;2.50;;;;;;;;;;5001268;28;20885;-68
2023/07/04 04:59:06;;;;;;;8.07;2.88;;;;;;;;;;4997912;28;20144;-66
2023/07/04 05:01:32;;;;;;;6.70;2.42;;;;;;;;;;5000031;28;20037;-67
2023/07/04 05:03:59;;;;;;;10.32;3.00;;;;;;;;;;5001638;28;20033;-68
2023/07/04 05:06:25;;;;;;;9.40;2.90;;;;;;;;;;5003123;28;20064;-67
2023/07/04 05:08:52;;;;;;;7.13;2.50;;;;;;;;;;4997603;28;20471;-67
2023/07/04 05:11:19;;;;;;;6.38;2.28;;;;;;;;;;5003414;28;20029;-68
2023/07/04 05:13:45;;;;;;;6.35;2.10;;;;;;;;;;5004289;28;20070;-68
2023/07/04 05:16:13;;;;;;;9.25;2.80;;;;;;;;;;5000657;28;20156;-68
2023/07/04 05:18:39;;;;;;;15.95;4.28;;;;;;;;;;4998441;28;20061;-67
2023/07/04 05:21:13;;;;;;;12.65;3.03;;;;;;;;;;4980099;28;20041;-67
2023/07/04 05:23:41;;;;;;;9.70;2.67;;;;;;;;;;5001807;28;20025;-68
2023/07/04 05:26:11;;;;;;;13.38;3.20;;;;;;;;;;5000556;28;20391;-68
2023/07/04 05:28:38;;;;;;;7.57;2.47;;;;;;;;;;5004332;28;20026;-67
2023/07/04 05:31:16;;;;;;;7.63;2.70;;;;;;;;;;4996156;28;20033;-67
2023/07/04 05:33:42;;;;;;;7.03;2.85;;;;;;;;;;5001113;28;20365;-67
2023/07/04 05:36:11;;;;;;;7.43;2.63;;;;;;;;;;4996192;28;20431;-67
2023/07/04 05:38:38;;;;;;;7.40;2.60;;;;;;;;;;5002492;28;20409;-67
2023/07/04 05:41:08;;;;;;;8.27;2.80;;;;;;;;;;4998633;28;20072;-67
2023/07/04 05:43:34;;;;;;;9.48;2.58;;;;;;;;;;4998614;28;20507;-67
2023/07/04 05:46:01;;;;;;;8.85;2.75;;;;;;;;;;4994186;28;20037;-67
2023/07/04 05:48:27;;;;;;;9.43;2.90;;;;;;;;;;5000981;28;20033;-66
2023/07/04 05:50:57;;;;;;;7.07;2.42;;;;;;;;;;4998594;28;20111;-67
2023/07/04 05:53:30;;;;;;;9.27;2.85;;;;;;;;;;5001080;28;20123;-68
2023/07/04 05:56:08;;;;;;;11.02;3.08;;;;;;;;;;4999853;28;20016;-67
2023/07/04 05:58:35;;;;;;;8.73;2.90;;;;;;;;;;4999042;28;20449;-67
2023/07/04 06:01:14;;;;;;;7.60;2.80;;;;;;;;;;4999417;28;20048;-68
2023/07/04 06:03:40;;;;;;;7.80;2.45;;;;;;;;;;5007979;28;20041;-68
2023/07/04 06:06:07;;;;;;;10.18;2.97;;;;;;;;;;5002444;28;20025;-68
2023/07/04 06:08:34;;;;;;;8.35;2.80;;;;;;;;;;5003692;28;20451;-68
2023/07/04 06:11:01;;;;;;;9.55;3.00;;;;;;;;;;5007297;28;20483;-68
2023/07/04 06:13:28;;;;;;;8.43;2.88;;;;;;;;;;5004356;28;20541;-68
2023/07/04 06:15:54;;;;;;;6.68;2.45;;;;;;;;;;5003781;28;20537;-67
2023/07/04 06:18:20;;;;;;;7.63;2.60;;;;;;;;;;5008117;28;20706;-68
2023/07/04 06:20:46;;;;;;;8.82;2.92;;;;;;;;;;5007087;28;20029;-68
2023/07/04 06:23:13;;;;;;;7.72;2.60;;;;;;;;;;4999936;28;20026;-68
2023/07/04 06:25:39;;;;;;;7.38;2.70;;;;;;;;;;5006445;28;20030;-68
2023/07/04 06:28:05;;;;;;;10.10;3.30;;;;;;;;;;5000899;28;20025;-68
2023/07/04 06:30:34;;;;;;;8.23;3.20;;;;;;;;;;5005614;28;20049;-67
2023/07/04 06:33:03;;;;;;;10.25;3.40;;;;;;;;;;4996199;28;20060;-67
2023/07/04 06:35:30;;;;;;;8.25;3.10;;;;;;;;;;5000846;28;20064;-67
2023/07/04 06:37:56;;;;;;;9.63;2.47;;;;;;;;;;5004785;28;20502;-68
2023/07/04 06:40:22;;;;;;;7.82;2.40;;;;;;;;;;5003303;28;20069;-68
2023/07/04 06:42:48;;;;;;;8.38;2.78;;;;;;;;;;5008698;28;20033;-68
2023/07/04 06:45:15;;;;;;;10.60;3.65;;;;;;;;;;5004096;28;20053;-68
2023/07/04 06:47:41;;;;;;;11.68;3.55;;;;;;;;;;5000523;28;20192;-68
2023/07/04 06:50:08;;;;;;;7.40;3.00;;;;;;;;;;4998828;28;20513;-67
2023/07/04 06:52:34;;;;;;;8.07;2.90;;;;;;;;;;5004267;28;20041;-68
2023/07/04 06:55:00;;;;;;;7.65;2.78;;;;;;;;;;4996717;28;20049;-68
2023/07/04 06:57:26;;;;;;;7.43;2.83;;;;;;;;;;5005715;28;20379;-68
2023/07/04 06:59:52;;;;;;;9.18;2.83;;;;;;;;;;5003499;28;20123;-68
2023/07/04 07:02:18;;;;;;;8.82;3.10;;;;;;;;;;5007126;28;20485;-67
2023/07/04 07:04:45;;;;;;;12.07;3.03;;;;;;;;;;5009162;28;20029;-68
2023/07/04 07:07:11;;;;;;;8.77;2.72;;;;;;;;;;4996238;28;20037;-68
2023/07/04 07:09:41;;;;;;;8.55;2.80;;;;;;;;;;5005918;28;20141;-68
2023/07/04 07:12:11;;;;;;;11.98;2.80;;;;;;;;;;5003096;28;20025;-68
2023/07/04 07:14:38;;;;;;;9.95;3.03;;;;;;;;;;5003009;28;20828;-68
2023/07/04 07:17:07;;;;;;;10.20;3.45;;;;;;;;;;5006195;28;20033;-68
2023/07/04 07:19:34;;;;;;;10.98;3.15;;;;;;;;;;5005886;28;20125;-68
2023/07/04 07:22:01;;;;;;;9.70;2.83;;;;;;;;;;5000636;28;20203;-68
2023/07/04 07:24:30;;;;;;;7.10;2.60;;;;;;;;;;5005680;28;20562;-68
2023/07/04 07:26:57;;;;;;;7.30;2.47;;;;;;;;;;5001567;28;20036;-68
2023/07/04 07:29:23;;;;;;;8.55;3.08;;;;;;;;;;5003440;28;20026;-68
2023/07/04 07:31:50;;;;;;;8.23;2.78;;;;;;;;;;5003959;28;20028;-67
2023/07/04 07:34:17;;;;;;;7.97;2.65;;;;;;;;;;4997802;28;20029;-67
2023/07/04 07:36:44;;;;;;;7.45;2.78;;;;;;;;;;5005273;28;20606;-68
2023/07/04 07:39:11;;;;;;;7.97;2.80;;;;;;;;;;5001087;28;20445;-68
2023/07/04 07:41:39;;;;;;;8.30;2.80;;;;;;;;;;5002759;28;20029;-68
2023/07/04 07:44:06;;;;;;;7.65;3.08;;;;;;;;;;5004096;28;20033;-68
2023/07/04 07:46:32;;;;;;;10.77;2.90;;;;;;;;;;5002835;28;20029;-68
2023/07/04 07:48:59;;;;;;;9.20;2.78;;;;;;;;;;5001046;28;20756;-68
2023/07/04 07:51:26;;;;;;;7.63;2.38;;;;;;;;;;5002026;28;20095;-68
2023/07/04 07:53:56;;;;;;;8.10;2.53;;;;;;;;;;4995708;28;20119;-67
2023/07/04 07:56:24;;;;;;;7.80;2.50;;;;;;;;;;5002054;28;20037;-68
2023/07/04 07:58:50;;;;;;;8.02;2.40;;;;;;;;;;5001087;28;20116;-68
2023/07/04 08:01:18;;;;;;;8.05;2.50;;;;;;;;;;5005155;28;20116;-69
2023/07/04 08:03:45;;;;;;;7.63;2.58;;;;;;;;;;5001069;28;20044;-67
2023/07/04 08:06:26;;;;;;;7.72;2.50;;;;;;;;;;5003053;28;20650;-69
2023/07/04 08:08:53;;;;;;;7.25;2.22;;;;;;;;;;5002442;28;20017;-68
2023/07/04 08:11:20;;;;;;;6.72;1.95;;;;;;;;;;5003566;28;20045;-69
2023/07/04 08:13:46;;;;;;;6.90;2.35;;;;;;;;;;5007490;28;20042;-69
2023/07/04 08:16:17;;;;;;;7.38;2.40;;;;;;;;;;4999383;28;20038;-69
2023/07/04 08:18:43;;;;;;;7.70;2.35;;;;;;;;;;5002065;28;20060;-69
2023/07/04 08:21:09;;;;;;;8.40;2.50;;;;;;;;;;4998480;28;20029;-69
2023/07/04 08:23:36;;;;;;;6.03;2.20;;;;;;;;;;5002295;28;20765;-69
2023/07/04 08:26:02;;;;;;;6.80;2.40;;;;;;;;;;5003255;28;20034;-69
2023/07/04 08:28:28;;;;;;;6.68;2.30;;;;;;;;;;5000144;28;20034;-69
2023/07/04 08:31:02;;;;;;;8.48;2.70;;;;;;;;;;4997099;28;20093;-69
2023/07/04 08:33:28;;;;;;;6.20;2.17;;;;;;;;;;5005197;28;20033;-69
2023/07/04 08:35:54;;;;;;;7.43;2.47;;;;;;;;;;4998310;28;20095;-69
2023/07/04 08:38:21;;;;;;;6.68;2.50;;;;;;;;;;5006966;28;20454;-68
2023/07/04 08:40:47;;;;;;;8.13;2.47;;;;;;;;;;5005893;28;20053;-68
2023/07/04 08:43:14;;;;;;;11.18;2.72;;;;;;;;;;4999206;28;20365;-69
2023/07/04 08:45:40;;;;;;;6.82;2.40;;;;;;;;;;5002430;28;20357;-69
2023/07/04 08:48:07;;;;;;;8.30;2.50;;;;;;;;;;5000508;28;20038;-68
2023/07/04 08:50:36;;;;;;;5.97;2.10;;;;;;;;;;4999185;28;20026;-68
2023/07/04 08:53:14;;;;;;;9.00;2.50;;;;;;;;;;4996537;28;20029;-67
2023/07/04 08:55:46;;;;;;;6.10;2.20;;;;;;;;;;5000797;28;20342;-68
2023/07/04 08:58:14;;;;;;;9.38;2.28;;;;;;;;;;4991606;28;20109;-69
2023/07/04 09:00:42;;;;;;;12.18;2.40;;;;;;;;;;4997316;28;20410;-68
2023/07/04 09:03:11;;;;;;;5.72;2.03;;;;;;;;;;4996682;28;20021;-69
2023/07/04 09:05:43;;;;;;;5.00;1.67;;;;;;;;;;4995269;28;20112;-69
2023/07/04 09:08:16;;;;;;;6.80;2.20;;;;;;;;;;4998854;28;21800;-69
2023/07/04 09:10:44;;;;;;;7.10;2.15;;;;;;;;;;5002908;28;20111;-69
2023/07/04 09:13:12;;;;;;;6.22;2.05;;;;;;;;;;4994593;28;21319;-69
2023/07/04 09:15:43;;;;;;;7.70;2.30;;;;;;;;;;5001493;28;20786;-68
2023/07/04 09:18:09;;;;;;;7.80;2.03;;;;;;;;;;4997169;28;20654;-69
2023/07/04 09:20:41;;;;;;;6.78;2.22;;;;;;;;;;4996434;28;20037;-69
2023/07/04 09:23:10;;;;;;;5.68;2.05;;;;;;;;;;4994379;28;20021;-69
2023/07/04 09:25:36;;;;;;;6.45;2.35;;;;;;;;;;4999664;28;20580;-69
2023/07/04 09:28:04;;;;;;;8.52;2.08;;;;;;;;;;4996095;28;20038;-69
2023/07/04 09:30:30;;;;;;;5.13;1.90;;;;;;;;;;4999375;28;20060;-69
2023/07/04 09:32:56;;;;;;;6.10;1.90;;;;;;;;;;4996930;28;20087;-70
2023/07/04 09:35:23;;;;;;;5.93;2.00;;;;;;;;;;5001678;28;20065;-69
2023/07/04 09:37:56;;;;;;;4.88;1.90;;;;;;;;;;4999376;28;20332;-69
2023/07/04 09:40:39;;;;;;;4.13;1.48;;;;;;;;;;5004551;28;20141;-69
2023/07/04 09:43:07;;;;;;;5.70;1.90;;;;;;;;;;4994103;28;20053;-69
2023/07/04 09:45:33;;;;;;;4.57;1.67;;;;;;;;;;5001898;28;20487;-68
2023/07/04 09:48:00;;;;;;;6.13;1.70;;;;;;;;;;4991673;28;20200;-69
2023/07/04 09:50:31;;;;;;;7.03;1.95;;;;;;;;;;4998483;28;20103;-69
2023/07/04 09:53:03;;;;;;;5.97;2.08;;;;;;;;;;4997544;28;20487;-69
2023/07/04 09:55:30;;;;;;;5.32;1.73;;;;;;;;;;5002112;28;20029;-69
2023/07/04 09:58:15;;;;;;;6.32;2.00;;;;;;;;;;4997664;28;20125;-69
2023/07/04 10:00:43;;;;;;;7.32;1.85;;;;;;;;;;4996150;28;20038;-68
2023/07/04 10:03:10;;;;;;;7.22;1.95;;;;;;;;;;4997124;28;20585;-68
2023/07/04 10:05:37;;;;;;;6.35;1.85;;;;;;;;;;4999745;28;20140;-69
2023/07/04 10:08:08;;;;;;;4.20;1.67;;;;;;;;;;5000942;28;20112;-69
2023/07/04 10:10:36;;;;;;;5.10;1.70;;;;;;;;;;5002332;28;20312;-68
2023/07/04 10:13:03;;;;;;;5.18;1.60;;;;;;;;;;4999586;28;20042;-68
2023/07/04 10:15:37;;;;;;;12.68;1.75;;;;;;;;;;5003152;28;20057;-68
2023/07/04 10:18:06;;;;;;;6.40;1.70;;;;;;;;;;4992929;28;20064;-68
2023/07/04 10:20:36;;;;;;;5.55;1.60;;;;;;;;;;5000875;28;20745;-68
2023/07/04 10:23:02;;;;;;;5.05;1.65;;;;;;;;;;4999017;28;20590;-70
2023/07/04 10:25:30;;;;;;;4.57;1.75;;;;;;;;;;5000523;28;20025;-69
2023/07/04 10:28:07;;;;;;;4.80;1.60;;;;;;;;;;4994934;28;20026;-68
2023/07/04 10:30:35;;;;;;;6.38;1.88;;;;;;;;;;5005370;28;20503;-68
2023/07/04 10:33:03;;;;;;;11.20;2.17;;;;;;;;;;4994770;28;20034;-68
2023/07/04 10:35:34;;;;;;;6.03;1.80;;;;;;;;;;5003651;28;20038;-68
2023/07/04 10:38:03;;;;;;;10.45;2.25;;;;;;;;;;4999836;28;20033;-68
2023/07/04 10:40:30;;;;;;;5.82;1.95;;;;;;;;;;4999498;28;20111;-69
2023/07/04 10:43:01;;;;;;;5.97;2.10;;;;;;;;;;4998522;28;20111;-68
2023/07/04 10:45:28;;;;;;;5.90;1.85;;;;;;;;;;5005009;28;20535;-68
2023/07/04 10:47:56;;;;;;;6.03;2.00;;;;;;;;;;5000514;28;20265;-68
2023/07/04 10:50:26;;;;;;;6.00;1.77;;;;;;;;;;5008679;28;20033;-68
2023/07/04 10:52:52;;;;;;;6.40;1.85;;;;;;;;;;4995661;28;20112;-68
2023/07/04 10:55:39;;;;;;;7.60;2.20;;;;;;;;;;5003730;28;20041;-68
2023/07/04 10:58:07;;;;;;;6.95;2.00;;;;;;;;;;5002588;28;20033;-68
2023/07/04 11:00:54;;;;;;;10.20;2.35;;;;;;;;;;5003409;28;20061;-68
2023/07/04 11:03:40;;;;;;;6.40;1.70;;;;;;;;;;5003645;28;20404;-68
2023/07/04 11:06:08;;;;;;;5.65;2.00;;;;;;;;;;5001061;28;20118;-68
2023/07/04 11:08:38;;;;;;;5.90;1.80;;;;;;;;;;5000928;28;20065;-69
2023/07/04 11:11:08;;;;;;;6.85;1.70;;;;;;;;;;4997762;28;20045;-69
2023/07/04 11:13:35;;;;;;;6.75;1.90;;;;;;;;;;5006087;28;20037;-69
2023/07/04 11:16:06;;;;;;;5.35;1.80;;;;;;;;;;5000603;28;20048;-69
2023/07/04 11:18:34;;;;;;;6.63;1.70;;;;;;;;;;5002479;28;20494;-67
2023/07/04 11:21:10;;;;;;;8.68;1.85;;;;;;;;;;5002591;28;20797;-69
2023/07/04 11:24:03;;;;;;;6.78;1.80;;;;;;;;;;5000658;28;20028;-68
2023/07/04 11:26:49;;;;;;;7.20;1.80;;;;;;;;;;4998606;28;20037;-68
2023/07/04 11:29:18;;;;;;;6.20;1.80;;;;;;;;;;5000346;28;20237;-68
2023/07/04 11:32:02;;;;;;;6.28;1.80;;;;;;;;;;5000770;28;20048;-68
2023/07/04 11:35:01;;;;;;;7.53;1.92;;;;;;;;;;5002517;28;20037;-68
2023/07/04 11:37:32;;;;;;;8.18;1.73;;;;;;;;;;4990901;28;20475;-68
2023/07/04 11:40:01;;;;;;;5.50;1.80;;;;;;;;;;4996063;28;20053;-68
2023/07/04 11:42:44;;;;;;;5.50;1.70;;;;;;;;;;4997051;28;20033;-68
2023/07/04 11:45:14;;;;;;;4.88;1.58;;;;;;;;;;4993769;28;22514;-68
2023/07/04 11:47:48;;;;;;;5.63;1.90;;;;;;;;;;4998983;28;20183;-68
2023/07/04 11:50:16;;;;;;;6.00;1.60;;;;;;;;;;4996495;28;20383;-67
2023/07/04 11:52:45;;;;;;;7.45;2.55;;;;;;;;;;4998616;28;20037;-68
2023/07/04 11:55:14;;;;;;;7.30;2.10;;;;;;;;;;4994413;28;20037;-68
2023/07/04 11:57:55;;;;;;;8.25;2.70;;;;;;;;;;4998357;28;20358;-68
2023/07/04 12:00:43;;;;;;;11.05;3.70;;;;;;;;;;4993147;28;20412;-67
2023/07/04 12:03:21;;;;;;;7.13;2.17;;;;;;;;;;4992717;28;20033;-68
2023/07/04 12:05:55;;;;;;;6.25;1.83;;;;;;;;;;4999569;28;20021;-70
2023/07/04 12:08:40;;;;;;;9.23;2.00;;;;;;;;;;4991567;28;20109;-70
2023/07/04 12:11:08;;;;;;;8.70;1.90;;;;;;;;;;4998011;28;20116;-67
2023/07/04 12:13:37;;;;;;;7.15;1.65;;;;;;;;;;4994396;28;20135;-68
2023/07/04 12:16:04;;;;;;;6.05;1.58;;;;;;;;;;4995809;28;20027;-69
2023/07/04 12:18:33;;;;;;;10.30;1.95;;;;;;;;;;4999117;28;20115;-69
2023/07/04 12:21:00;;;;;;;7.45;1.70;;;;;;;;;;4993278;28;20021;-69
2023/07/04 12:23:27;;;;;;;5.32;1.40;;;;;;;;;;4999673;28;20033;-69
2023/07/04 12:25:54;;;;;;;8.70;1.90;;;;;;;;;;4997465;28;20083;-69
2023/07/04 12:28:25;;;;;;;7.80;1.77;;;;;;;;;;4999477;28;20480;-69
2023/07/04 12:30:52;;;;;;;5.13;1.40;;;;;;;;;;4993564;28;20032;-69
2023/07/04 12:33:28;;;;;;;6.85;1.60;;;;;;;;;;5000587;28;20401;-68
2023/07/04 12:35:59;;;;;;;6.53;1.63;;;;;;;;;;4991130;28;20145;-68
2023/07/04 12:38:26;;;;;;;4.93;1.50;;;;;;;;;;4998611;28;20705;-69
2023/07/04 12:40:54;;;;;;;6.60;1.58;;;;;;;;;;4992348;28;20494;-69
2023/07/04 12:43:21;;;;;;;5.88;1.50;;;;;;;;;;4996994;28;20039;-69
2023/07/04 12:45:48;;;;;;;7.50;1.70;;;;;;;;;;4992886;28;20116;-68
2023/07/04 12:48:14;;;;;;;10.57;2.05;;;;;;;;;;4993088;28;20603;-69
2023/07/04 12:50:52;;;;;;;5.57;1.55;;;;;;;;;;4996167;28;20088;-69
2023/07/04 12:53:19;;;;;;;5.05;1.35;;;;;;;;;;5004322;28;20144;-68
2023/07/04 12:55:46;;;;;;;6.13;1.63;;;;;;;;;;4997470;28;20136;-68
2023/07/04 12:58:14;;;;;;;5.28;1.70;;;;;;;;;;4994582;28;20112;-67
2023/07/04 13:00:44;;;;;;;4.40;1.50;;;;;;;;;;4995998;28;20028;-68
2023/07/04 13:03:12;;;;;;;7.32;1.83;;;;;;;;;;4991236;28;21559;-67
2023/07/04 13:05:42;;;;;;;7.25;1.45;;;;;;;;;;5001012;28;20051;-69
2023/07/04 13:08:22;;;;;;;6.22;1.80;;;;;;;;;;4990688;28;20026;-69
2023/07/04 13:10:50;;;;;;;4.97;1.25;;;;;;;;;;4996179;28;20055;-68
2023/07/04 13:13:22;;;;;;;7.75;1.60;;;;;;;;;;4994371;28;20725;-68
2023/07/04 13:15:49;;;;;;;5.88;1.40;;;;;;;;;;4999925;28;20214;-69
2023/07/04 13:18:15;;;;;;;4.32;1.38;;;;;;;;;;4990165;28;20078;-69
2023/07/04 13:20:55;;;;;;;8.88;1.73;;;;;;;;;;5000830;28;20629;-69
2023/07/04 13:23:22;;;;;;;6.03;1.45;;;;;;;;;;4994255;28;20068;-70
2023/07/04 13:25:52;;;;;;;8.02;1.42;;;;;;;;;;4997363;28;20033;-68
2023/07/04 13:28:25;;;;;;;5.35;1.70;;;;;;;;;;4992410;28;20036;-68
2023/07/04 13:30:51;;;;;;;5.78;1.77;;;;;;;;;;4992664;28;20034;-67
2023/07/04 13:33:27;;;;;;;4.32;1.40;;;;;;;;;;5003871;28;20413;-68
2023/07/04 13:35:53;;;;;;;5.85;1.60;;;;;;;;;;4987298;28;20610;-68
2023/07/04 13:38:21;;;;;;;6.45;1.52;;;;;;;;;;5000560;28;20033;-68
2023/07/04 13:40:47;;;;;;;5.55;1.40;;;;;;;;;;4997648;28;20590;-68
2023/07/04 13:43:14;;;;;;;4.70;1.50;;;;;;;;;;4996938;28;20455;-68
2023/07/04 13:45:41;;;;;;;5.43;1.55;;;;;;;;;;4995946;28;20121;-68
2023/07/04 13:48:07;;;;;;;5.00;1.58;;;;;;;;;;4991853;28;20104;-70
2023/07/04 13:50:34;;;;;;;5.53;1.63;;;;;;;;;;5001050;28;20035;-70
2023/07/04 13:53:03;;;;;;;4.40;1.50;;;;;;;;;;4993982;28;20026;-69
2023/07/04 13:55:30;;;;;;;4.88;1.50;;;;;;;;;;4999091;28;20147;-69
2023/07/04 13:57:56;;;;;;;7.05;1.50;;;;;;;;;;4993308;28;20338;-69
2023/07/04 14:00:23;;;;;;;4.63;1.80;;;;;;;;;;5003439;28;20036;-69
2023/07/04 14:02:49;;;;;;;5.75;1.40;;;;;;;;;;4999167;28;20045;-68
2023/07/04 14:05:18;;;;;;;5.75;1.38;;;;;;;;;;4997080;28;20018;-68
2023/07/04 14:07:46;;;;;;;4.88;1.38;;;;;;;;;;4996549;28;20411;-68
2023/07/04 14:10:13;;;;;;;4.85;1.55;;;;;;;;;;4990908;28;20030;-68
2023/07/04 14:12:39;;;;;;;6.47;1.58;;;;;;;;;;4993256;28;20029;-69
2023/07/04 14:15:10;;;;;;;6.72;1.60;;;;;;;;;;5000654;28;20212;-68
2023/07/04 14:17:36;;;;;;;4.82;1.65;;;;;;;;;;4998011;28;21622;-69
2023/07/04 14:20:05;;;;;;;4.22;1.55;;;;;;;;;;4997806;28;20072;-69
2023/07/04 14:22:32;;;;;;;5.22;1.40;;;;;;;;;;5002367;28;20498;-68
2023/07/04 14:24:58;;;;;;;4.25;1.65;;;;;;;;;;4994766;28;20025;-69
2023/07/04 14:27:25;;;;;;;3.30;1.33;;;;;;;;;;5001833;28;20800;-69
2023/07/04 14:29:51;;;;;;;3.78;1.40;;;;;;;;;;4999665;28;20502;-69
2023/07/04 14:32:18;;;;;;;4.85;1.40;;;;;;;;;;5003022;28;20266;-69
2023/07/04 14:34:45;;;;;;;4.53;1.25;;;;;;;;;;4996607;28;20050;-68
2023/07/04 14:37:11;;;;;;;6.10;1.50;;;;;;;;;;4992419;28;20522;-68
2023/07/04 14:39:37;;;;;;;4.32;1.40;;;;;;;;;;5000987;28;20092;-68
2023/07/04 14:42:04;;;;;;;5.43;1.35;;;;;;;;;;4995401;28;20037;-68
2023/07/04 14:44:30;;;;;;;5.32;1.42;;;;;;;;;;5004620;28;20056;-68
2023/07/04 14:47:14;;;;;;;6.50;1.50;;;;;;;;;;4995828;28;20048;-68
2023/07/04 14:49:41;;;;;;;4.97;1.37;;;;;;;;;;5000938;28;20036;-68
2023/07/04 14:52:07;;;;;;;4.88;1.50;;;;;;;;;;4997210;28;20037;-68